Time;durP1;ratioP1;P1;durP2;ratioP2;P2;SDS_P1;SDS_P2;PMS_P1;PMS_P2;Temp;Humidity;BMP_temperature;BMP_pressure;BME280_temperature;BME280_humidity;BME280_pressure;Samples;Min_cycle;Max_cycle;Signal;HPM_P1;HPM_P2
2022/12/07 00:01:03;;;;;;;7.15;0.82;;;4.70;99.90;;;;;;5092969;27;20096;-82
2022/12/07 00:03:29;;;;;;;5.57;0.70;;;3.90;99.90;;;;;;5092025;27;20138;-82
2022/12/07 00:05:57;;;;;;;9.77;1.15;;;3.90;99.90;;;;;;5092831;27;20103;-82
2022/12/07 00:08:23;;;;;;;9.35;0.88;;;3.90;99.90;;;;;;5127923;28;20096;-82
2022/12/07 00:10:49;;;;;;;17.48;1.10;;;3.90;99.90;;;;;;5109360;28;20045;-82
2022/12/07 00:13:14;;;;;;;6.57;0.70;;;3.90;99.90;;;;;;5128323;28;20041;-81
2022/12/07 00:15:40;;;;;;;5.07;1.08;;;4.40;99.90;;;;;;5127792;28;20082;-82
2022/12/07 00:18:06;;;;;;;11.35;1.20;;;4.10;99.90;;;;;;5128553;28;20045;-82
2022/12/07 00:20:32;;;;;;;6.32;0.82;;;3.90;99.90;;;;;;5091995;28;20561;-82
2022/12/07 00:22:58;;;;;;;5.88;1.08;;;3.80;99.90;;;;;;5110274;28;20376;-83
2022/12/07 00:25:25;;;;;;;7.90;0.60;;;3.90;99.90;;;;;;5092304;28;20051;-82
2022/12/07 00:27:52;;;;;;;7.15;0.90;;;3.90;99.90;;;;;;5128005;28;20035;-82
2022/12/07 00:30:18;;;;;;;3.80;0.60;;;3.90;99.90;;;;;;5109910;28;20402;-82
2022/12/07 00:32:44;;;;;;;10.88;0.90;;;3.90;99.90;;;;;;5109218;28;20096;-82
2022/12/07 00:35:09;;;;;;;9.02;0.55;;;3.90;99.90;;;;;;5092901;28;20524;-82
2022/12/07 00:37:35;;;;;;;6.40;0.57;;;3.90;99.90;;;;;;5127363;28;20070;-83
2022/12/07 00:40:01;;;;;;;7.22;0.82;;;4.70;99.90;;;;;;5128078;28;20039;-82
2022/12/07 00:42:26;;;;;;;7.50;0.70;;;4.80;99.90;;;;;;5092517;28;20059;-81
2022/12/07 00:44:52;;;;;;;7.18;0.95;;;4.10;99.90;;;;;;5092293;28;20047;-81
2022/12/07 00:47:17;;;;;;;5.35;0.45;;;4.10;99.90;;;;;;5075510;28;20161;-82
2022/12/07 00:49:43;;;;;;;4.22;0.40;;;4.20;99.90;;;;;;5092274;28;20047;-82
2022/12/07 00:52:09;;;;;;;5.28;0.75;;;4.20;99.90;;;;;;5109604;28;20041;-82
2022/12/07 00:54:34;;;;;;;2.63;0.43;;;4.70;99.90;;;;;;5108855;28;20094;-83
2022/12/07 00:57:00;;;;;;;6.10;1.02;;;4.30;99.90;;;;;;5077335;27;20035;-82
2022/12/07 00:59:26;;;;;;;2.97;0.35;;;4.30;99.90;;;;;;5078560;27;20297;-82
2022/12/07 01:01:51;;;;;;;5.13;0.55;;;4.30;99.90;;;;;;5113379;27;20047;-82
2022/12/07 01:04:17;;;;;;;7.90;1.42;;;4.30;99.90;;;;;;5095976;27;20054;-82
2022/12/07 01:06:42;;;;;;;3.40;0.52;;;4.30;99.90;;;;;;5095993;27;20074;-82
2022/12/07 01:09:08;;;;;;;3.15;0.40;;;4.30;99.90;;;;;;5096178;27;20043;-82
2022/12/07 01:11:34;;;;;;;7.68;0.77;;;4.60;99.90;;;;;;5078720;27;20466;-82
2022/12/07 01:14:00;;;;;;;4.22;0.55;;;5.40;99.90;;;;;;5096503;27;20031;-82
2022/12/07 01:16:28;;;;;;;5.32;0.73;;;4.20;99.90;;;;;;5095404;27;20070;-82
2022/12/07 01:18:56;;;;;;;10.70;1.60;;;4.20;99.90;;;;;;5131756;27;20047;-82
2022/12/07 01:21:24;;;;;;;6.72;0.80;;;5.40;99.90;;;;;;5112915;27;20103;-82
2022/12/07 01:23:50;;;;;;;8.82;1.15;;;4.10;99.90;;;;;;5130905;27;20478;-82
2022/12/07 01:26:19;;;;;;;3.80;0.73;;;4.00;99.90;;;;;;5131406;27;20049;-82
2022/12/07 01:28:45;;;;;;;6.07;0.57;;;4.00;99.90;;;;;;5112408;27;20035;-82
2022/12/07 01:31:15;;;;;;;9.98;0.80;;;4.00;99.90;;;;;;5113222;27;20509;-82
2022/12/07 01:33:42;;;;;;;9.27;0.60;;;4.00;99.90;;;;;;5130447;27;20074;-82
2022/12/07 01:36:19;;;;;;;5.70;0.60;;;4.00;99.90;;;;;;5131516;27;20039;-82
2022/12/07 01:38:46;;;;;;;14.65;0.80;;;4.10;99.90;;;;;;5112122;27;20072;-82
2022/12/07 01:41:12;;;;;;;4.28;0.65;;;4.10;99.90;;;;;;5130961;27;20051;-82
2022/12/07 01:44:09;;;;;;;12.65;0.77;;;4.10;99.90;;;;;;5130981;27;20039;-82
2022/12/07 01:46:34;;;;;;;10.90;0.80;;;4.20;99.90;;;;;;5129861;27;20035;-82
2022/12/07 01:49:02;;;;;;;9.40;0.80;;;4.20;99.90;;;;;;5131009;27;20051;-82
2022/12/07 01:51:29;;;;;;;6.45;0.80;;;4.50;99.90;;;;;;5111533;27;20530;-82
2022/12/07 01:53:55;;;;;;;7.55;0.43;;;4.30;99.90;;;;;;5130510;27;20991;-82
2022/12/07 01:56:26;;;;;;;5.00;0.50;;;4.30;99.90;;;;;;5130983;27;20115;-82
2022/12/07 01:58:53;;;;;;;5.68;0.68;;;4.30;99.90;;;;;;5111209;27;20050;-82
2022/12/07 02:01:19;;;;;;;7.47;1.08;;;4.30;99.90;;;;;;5091319;28;20081;-82
2022/12/07 02:03:45;;;;;;;5.55;0.57;;;4.30;99.90;;;;;;5107957;28;20078;-82
2022/12/07 02:06:16;;;;;;;5.05;0.63;;;4.20;99.90;;;;;;5075293;28;20118;-81
2022/12/07 02:08:42;;;;;;;4.38;0.80;;;4.10;99.90;;;;;;5109307;28;20705;-81
2022/12/07 02:11:09;;;;;;;4.10;0.75;;;4.00;99.90;;;;;;5109830;28;20086;-81
2022/12/07 02:13:38;;;;;;;7.13;0.68;;;3.90;99.90;;;;;;5109767;28;20637;-82
2022/12/07 02:16:28;;;;;;;5.20;0.70;;;3.90;99.90;;;;;;5091158;28;20047;-82
2022/12/07 02:19:02;;;;;;;8.95;1.08;;;3.80;99.90;;;;;;5077584;28;20406;-82
2022/12/07 02:21:47;;;;;;;11.38;1.30;;;3.70;99.90;;;;;;5107719;28;20083;-82
2022/12/07 02:24:28;;;;;;;7.93;0.88;;;3.70;99.90;;;;;;5108113;28;20157;-82
2022/12/07 02:27:18;;;;;;;10.32;0.93;;;3.60;99.90;;;;;;5108617;28;20047;-82
2022/12/07 02:29:58;;;;;;;5.10;0.80;;;3.60;99.90;;;;;;5107440;28;20047;-82
2022/12/07 02:32:45;;;;;;;2.20;0.30;;;3.60;99.90;;;;;;5108094;28;20036;-82
2022/12/07 02:35:15;;;;;;;13.77;0.55;;;3.50;99.90;;;;;;5108270;28;20521;-82
2022/12/07 02:38:03;;;;;;;8.60;0.80;;;3.50;99.90;;;;;;5107270;28;20036;-82
2022/12/07 02:40:37;;;;;;;9.32;1.30;;;3.50;99.90;;;;;;5091787;28;20444;-81
2022/12/07 02:43:19;;;;;;;8.50;0.93;;;3.50;99.90;;;;;;5108729;28;20479;-82
2022/12/07 02:45:47;;;;;;;4.25;0.70;;;4.30;99.90;;;;;;5107948;28;20047;-81
2022/12/07 02:48:16;;;;;;;7.00;0.70;;;3.90;99.90;;;;;;5107818;28;20075;-82
2022/12/07 02:50:52;;;;;;;8.73;1.05;;;3.70;99.90;;;;;;5107040;28;20127;-82
2022/12/07 02:53:35;;;;;;;11.60;2.03;;;3.80;99.90;;;;;;5108390;28;20039;-82
2022/12/07 02:56:28;;;;;;;10.15;2.35;;;3.90;99.90;;;;;;5108543;28;20044;-82
2022/12/07 02:59:19;;;;;;;10.45;1.35;;;4.00;99.90;;;;;;5107100;28;20047;-82
2022/12/07 03:01:56;;;;;;;4.90;1.05;;;4.00;99.90;;;;;;5107675;28;20052;-82
2022/12/07 03:04:44;;;;;;;14.70;1.27;;;4.00;99.90;;;;;;5107090;28;20066;-82
2022/12/07 03:07:31;;;;;;;6.90;1.13;;;4.00;99.90;;;;;;5108400;28;20043;-82
2022/12/07 03:10:09;;;;;;;4.55;1.25;;;3.90;99.90;;;;;;5107939;28;20106;-82
2022/12/07 03:12:43;;;;;;;3.42;0.70;;;3.90;99.90;;;;;;5106799;28;20054;-82
2022/12/07 03:15:31;;;;;;;9.18;0.65;;;3.90;99.90;;;;;;5107428;28;20044;-82
2022/12/07 03:17:59;;;;;;;7.72;0.65;;;3.90;99.90;;;;;;5107794;28;20440;-82
2022/12/07 03:20:26;;;;;;;5.05;1.10;;;5.10;99.90;;;;;;5089301;28;20048;-82
2022/12/07 03:22:53;;;;;;;9.40;0.85;;;3.90;99.90;;;;;;5090413;28;20050;-82
2022/12/07 03:25:20;;;;;;;3.20;0.50;;;4.50;99.90;;;;;;5106255;28;20071;-82
2022/12/07 03:27:56;;;;;;;6.50;0.63;;;3.90;99.90;;;;;;5090264;28;20087;-82
2022/12/07 03:30:28;;;;;;;6.70;0.80;;;3.90;99.90;;;;;;5089379;28;20104;-83
2022/12/07 03:33:10;;;;;;;4.28;0.50;;;5.00;99.90;;;;;;5107233;28;20071;-82
2022/12/07 03:36:08;;;;;;;5.70;0.50;;;4.00;99.90;;;;;;5107328;28;20051;-82
2022/12/07 03:38:49;;;;;;;5.97;0.77;;;4.00;99.90;;;;;;5092927;28;20481;-82
2022/12/07 03:41:22;;;;;;;6.13;0.73;;;4.00;99.90;;;;;;5090253;28;20467;-82
2022/12/07 03:43:48;;;;;;;6.28;1.00;;;4.00;99.90;;;;;;5089878;28;20044;-82
2022/12/07 03:46:49;;;;;;;8.07;0.47;;;4.00;99.90;;;;;;5089710;28;20146;-82
2022/12/07 03:49:29;;;;;;;10.32;2.45;;;4.10;99.90;;;;;;5018506;28;20053;-82
2022/12/07 03:52:06;;;;;;;5.93;0.57;;;4.10;99.90;;;;;;5089688;28;20184;-82
2022/12/07 03:54:41;;;;;;;3.83;0.40;;;4.10;99.90;;;;;;5108036;28;20096;-82
2022/12/07 03:57:08;;;;;;;1.27;0.40;;;4.00;99.90;;;;;;5106822;28;20078;-82
2022/12/07 03:59:34;;;;;;;7.13;0.65;;;4.00;99.90;;;;;;5105982;28;20051;-82
2022/12/07 04:02:06;;;;;;;5.78;0.50;;;4.00;99.90;;;;;;5089321;28;20048;-82
2022/12/07 04:04:33;;;;;;;8.68;0.63;;;3.90;99.90;;;;;;5088864;28;20050;-82
2022/12/07 04:06:58;;;;;;;8.82;0.77;;;3.90;99.90;;;;;;5072925;28;20437;-82
2022/12/07 04:09:24;;;;;;;1.98;0.20;;;3.90;99.90;;;;;;5107957;28;20047;-82
2022/12/07 04:11:50;;;;;;;5.30;1.10;;;4.10;99.90;;;;;;5106233;28;20552;-82
2022/12/07 04:14:19;;;;;;;5.35;0.35;;;3.80;99.90;;;;;;5106639;28;20055;-82
2022/12/07 04:16:49;;;;;;;4.28;0.57;;;4.90;99.90;;;;;;5107295;28;20079;-82
2022/12/07 04:19:17;;;;;;;8.05;2.35;;;3.60;99.90;;;;;;5106886;28;20130;-82
2022/12/07 04:21:43;;;;;;;5.70;0.50;;;4.60;99.90;;;;;;5105378;28;20087;-82
2022/12/07 04:24:09;;;;;;;2.60;0.50;;;3.50;99.90;;;;;;5106422;28;20479;-82
2022/12/07 04:26:34;;;;;;;6.82;0.40;;;3.50;99.90;;;;;;5089612;28;20054;-82
2022/12/07 04:29:00;;;;;;;10.27;0.57;;;4.30;99.90;;;;;;5089520;28;20509;-82
2022/12/07 04:31:26;;;;;;;9.77;0.52;;;3.50;99.90;;;;;;5058516;28;20398;-82
2022/12/07 04:33:51;;;;;;;9.57;0.65;;;3.50;99.90;;;;;;5093143;28;20092;-82
2022/12/07 04:36:19;;;;;;;6.25;0.40;;;3.50;99.90;;;;;;5076668;28;20079;-82
2022/12/07 04:38:45;;;;;;;9.23;1.00;;;3.50;99.90;;;;;;5076701;28;20040;-82
2022/12/07 04:41:10;;;;;;;9.13;0.95;;;3.60;99.90;;;;;;5110802;28;20457;-82
2022/12/07 04:43:36;;;;;;;7.97;1.08;;;3.60;99.90;;;;;;5109955;28;20046;-83
2022/12/07 04:46:02;;;;;;;4.63;0.60;;;3.60;99.90;;;;;;5093117;28;20043;-82
2022/12/07 04:48:28;;;;;;;7.72;0.70;;;4.70;99.90;;;;;;5111990;28;20043;-82
2022/12/07 04:50:54;;;;;;;6.03;0.50;;;3.60;99.90;;;;;;5111055;28;20043;-82
2022/12/07 04:53:19;;;;;;;7.30;0.70;;;3.50;99.90;;;;;;5110209;28;20043;-82
2022/12/07 04:55:45;;;;;;;6.35;0.50;;;3.50;99.90;;;;;;5111045;28;20048;-82
2022/12/07 04:58:12;;;;;;;6.32;0.88;;;3.50;99.90;;;;;;5111996;28;20043;-82
2022/12/07 05:00:38;;;;;;;4.55;0.40;;;3.40;99.90;;;;;;5109230;28;20075;-82
2022/12/07 05:03:04;;;;;;;4.50;0.50;;;4.40;99.90;;;;;;5131237;27;20047;-82
2022/12/07 05:05:30;;;;;;;12.52;0.77;;;3.30;99.90;;;;;;5096239;27;20470;-82
2022/12/07 05:07:56;;;;;;;3.67;0.40;;;4.10;99.90;;;;;;5096224;27;20104;-82
2022/12/07 05:10:22;;;;;;;6.50;0.60;;;3.10;99.90;;;;;;5132303;27;20070;-82
2022/12/07 05:12:48;;;;;;;8.75;0.82;;;3.10;99.90;;;;;;5112634;27;20058;-82
2022/12/07 05:15:14;;;;;;;6.75;0.70;;;3.50;99.90;;;;;;5113329;27;20050;-82
2022/12/07 05:17:40;;;;;;;7.30;0.80;;;2.90;99.90;;;;;;5131095;27;20044;-82
2022/12/07 05:20:08;;;;;;;3.92;0.60;;;2.90;99.90;;;;;;5131605;27;20083;-81
2022/12/07 05:22:34;;;;;;;9.02;1.77;;;2.80;99.90;;;;;;5112894;27;20138;-82
2022/12/07 05:25:00;;;;;;;11.05;0.80;;;2.80;99.90;;;;;;5131406;27;20063;-82
2022/12/07 05:27:26;;;;;;;5.57;0.52;;;2.70;99.90;;;;;;5112899;27;20498;-83
2022/12/07 05:29:51;;;;;;;6.47;0.88;;;2.70;99.90;;;;;;5078436;27;20484;-82
2022/12/07 05:32:17;;;;;;;4.93;0.35;;;2.60;99.90;;;;;;5095480;27;20039;-81
2022/12/07 05:34:43;;;;;;;6.95;0.55;;;2.50;99.90;;;;;;5130498;27;20096;-82
2022/12/07 05:37:08;;;;;;;9.82;0.82;;;2.50;99.90;;;;;;5112490;27;20050;-82
2022/12/07 05:39:34;;;;;;;2.15;0.60;;;2.80;99.90;;;;;;5130365;27;20040;-81
2022/12/07 05:42:12;;;;;;;3.33;0.50;;;2.50;99.90;;;;;;5129874;27;20122;-82
2022/12/07 05:44:42;;;;;;;7.78;0.57;;;2.50;99.90;;;;;;5112183;27;20085;-81
2022/12/07 05:47:08;;;;;;;3.78;0.40;;;3.20;99.90;;;;;;5130482;27;20114;-82
2022/12/07 05:49:35;;;;;;;11.27;1.95;;;2.50;99.90;;;;;;5112790;27;20100;-82
2022/12/07 05:52:01;;;;;;;14.50;1.13;;;3.50;99.90;;;;;;5112036;27;20063;-81
2022/12/07 05:54:26;;;;;;;8.77;1.17;;;2.60;99.90;;;;;;5095749;27;20042;-81
2022/12/07 05:56:52;;;;;;;9.88;0.98;;;2.60;99.90;;;;;;5130786;27;20114;-82
2022/12/07 05:59:24;;;;;;;8.05;0.82;;;2.70;99.90;;;;;;5130565;27;20039;-82
2022/12/07 06:01:52;;;;;;;8.57;0.63;;;2.70;99.90;;;;;;5112189;27;20487;-80
2022/12/07 06:04:19;;;;;;;7.97;2.05;;;2.70;99.90;;;;;;5130793;27;20035;-81
2022/12/07 06:06:44;;;;;;;11.55;0.90;;;2.80;99.90;;;;;;5095283;27;20074;-82
2022/12/07 06:09:11;;;;;;;9.60;0.98;;;2.80;99.90;;;;;;5111426;27;20082;-82
2022/12/07 06:14:21;;;;;;;8.20;1.15;;;3.00;99.90;;;;;;5111541;27;20607;-83
2022/12/07 06:16:47;;;;;;;4.63;0.70;;;3.10;99.90;;;;;;5094605;27;20051;-83
2022/12/07 06:19:12;;;;;;;4.78;0.55;;;3.10;99.90;;;;;;5077525;27;20061;-83
2022/12/07 06:21:38;;;;;;;4.90;0.40;;;3.20;99.90;;;;;;5093977;27;20494;-84
2022/12/07 06:24:04;;;;;;;3.55;0.77;;;3.20;99.90;;;;;;5094539;27;20035;-83
2022/12/07 06:26:30;;;;;;;6.82;0.82;;;3.20;99.90;;;;;;5093749;27;20047;-82
2022/12/07 06:28:55;;;;;;;7.00;0.65;;;3.20;99.90;;;;;;5077617;27;20131;-82
2022/12/07 06:31:21;;;;;;;5.28;0.63;;;3.20;99.90;;;;;;5094328;27;20053;-83
2022/12/07 06:33:47;;;;;;;10.75;0.93;;;3.20;99.90;;;;;;5094287;27;20498;-83
2022/12/07 06:36:13;;;;;;;1.80;0.40;;;3.70;99.90;;;;;;5094475;27;20149;-83
2022/12/07 06:38:39;;;;;;;8.23;0.80;;;3.00;99.90;;;;;;5111415;27;20039;-83
2022/12/07 06:41:05;;;;;;;10.43;2.60;;;3.00;99.90;;;;;;5094414;27;20035;-83
2022/12/07 06:43:30;;;;;;;8.15;1.90;;;2.90;99.90;;;;;;5094068;27;20046;-84
2022/12/07 06:45:56;;;;;;;5.70;1.30;;;3.40;99.90;;;;;;5111370;27;20039;-84
2022/12/07 06:48:22;;;;;;;5.05;0.80;;;2.80;99.90;;;;;;5077273;27;20475;-83
2022/12/07 06:50:48;;;;;;;7.18;0.98;;;2.80;99.90;;;;;;5093760;27;20512;-85
2022/12/07 06:53:14;;;;;;;3.28;0.63;;;2.60;99.90;;;;;;5094352;27;20051;-84
2022/12/07 06:55:39;;;;;;;6.30;0.70;;;2.60;99.90;;;;;;5110655;27;20486;-84
2022/12/07 06:58:05;;;;;;;3.00;0.30;;;2.60;99.90;;;;;;5094026;27;20066;-81
2022/12/07 07:00:31;;;;;;;6.90;0.90;;;2.50;99.90;;;;;;5111036;27;20043;-83
2022/12/07 07:02:56;;;;;;;2.83;0.57;;;2.50;99.90;;;;;;5077810;27;20138;-83
2022/12/07 07:05:22;;;;;;;5.63;0.80;;;2.60;99.90;;;;;;5093797;27;20051;-83
2022/12/07 07:07:51;;;;;;;4.80;0.57;;;2.70;99.90;;;;;;5110966;27;20047;-83
2022/12/07 07:10:17;;;;;;;4.45;0.80;;;2.80;99.90;;;;;;5110470;27;20322;-83
2022/12/07 07:12:42;;;;;;;8.32;0.90;;;3.00;99.90;;;;;;5093434;27;20078;-82
2022/12/07 07:15:09;;;;;;;9.13;0.82;;;3.00;99.90;;;;;;5093577;27;20043;-84
2022/12/07 07:17:35;;;;;;;4.25;0.52;;;3.10;99.90;;;;;;5094126;27;20466;-83
2022/12/07 07:20:00;;;;;;;3.97;0.93;;;3.20;99.90;;;;;;5093579;27;20085;-83
2022/12/07 07:22:26;;;;;;;11.65;1.25;;;3.80;99.90;;;;;;5093715;27;20126;-83
2022/12/07 07:24:52;;;;;;;5.80;0.65;;;3.30;99.90;;;;;;5076669;27;20049;-83
2022/12/07 07:27:17;;;;;;;3.78;0.52;;;3.40;99.90;;;;;;5112129;27;20047;-83
2022/12/07 07:29:43;;;;;;;5.10;2.17;;;4.50;99.90;;;;;;5094877;27;20537;-83
2022/12/07 07:32:09;;;;;;;5.15;0.50;;;3.60;99.90;;;;;;5093997;27;20046;-83
2022/12/07 07:34:34;;;;;;;2.55;0.40;;;3.70;99.90;;;;;;5093432;27;20059;-83
2022/12/07 07:37:00;;;;;;;2.58;0.40;;;3.70;99.90;;;;;;5076142;27;20035;-83
2022/12/07 07:39:26;;;;;;;10.35;0.60;;;3.70;99.90;;;;;;5092965;27;20047;-83
2022/12/07 07:41:52;;;;;;;5.10;0.77;;;3.70;99.90;;;;;;5093063;27;20095;-83
2022/12/07 07:44:17;;;;;;;8.77;1.10;;;3.80;99.90;;;;;;5076156;27;20191;-84
2022/12/07 07:46:43;;;;;;;10.02;0.60;;;3.80;99.90;;;;;;5092816;27;20051;-83
2022/12/07 07:49:10;;;;;;;4.07;0.50;;;3.70;99.90;;;;;;5092848;27;20039;-84
2022/12/07 07:51:36;;;;;;;4.82;0.80;;;3.70;99.90;;;;;;5093452;27;20402;-83
2022/12/07 07:54:02;;;;;;;1.95;0.50;;;3.60;99.90;;;;;;5092972;27;20035;-83
2022/12/07 07:56:28;;;;;;;6.22;1.98;;;3.60;99.90;;;;;;5093016;27;20047;-83
2022/12/07 07:58:54;;;;;;;6.90;0.90;;;3.20;99.90;;;;;;5075982;27;20043;-83
2022/12/07 08:01:19;;;;;;;6.40;0.77;;;3.50;99.90;;;;;;5109159;27;20425;-83
2022/12/07 08:03:48;;;;;;;3.75;0.77;;;3.40;99.90;;;;;;5092525;27;20047;-84
2022/12/07 08:06:14;;;;;;;2.75;0.95;;;3.40;99.90;;;;;;5092327;27;20119;-83
2022/12/07 08:08:40;;;;;;;8.93;1.05;;;3.30;99.90;;;;;;5093109;28;20087;-83
2022/12/07 08:11:06;;;;;;;6.60;0.90;;;3.30;99.90;;;;;;5092743;28;20796;-84
2022/12/07 08:13:32;;;;;;;7.35;0.82;;;3.20;99.90;;;;;;5093062;28;20050;-83
2022/12/07 08:16:02;;;;;;;7.88;0.70;;;3.20;99.90;;;;;;5076540;28;20432;-83
2022/12/07 08:18:28;;;;;;;6.28;0.82;;;3.20;99.90;;;;;;5109861;28;20073;-83
2022/12/07 08:21:00;;;;;;;4.40;0.80;;;3.10;99.90;;;;;;5075726;28;20482;-83
2022/12/07 08:23:26;;;;;;;5.18;0.73;;;3.10;99.90;;;;;;5092789;28;20040;-83
2022/12/07 08:25:52;;;;;;;9.73;0.73;;;3.10;99.90;;;;;;5076062;28;20051;-83
2022/12/07 08:28:18;;;;;;;4.22;0.60;;;3.10;99.90;;;;;;5075825;28;20108;-83
2022/12/07 08:30:43;;;;;;;6.97;0.93;;;3.10;99.90;;;;;;5092823;28;20081;-83
2022/12/07 08:33:10;;;;;;;3.75;1.10;;;3.20;99.90;;;;;;5076119;28;20540;-83
2022/12/07 08:35:36;;;;;;;5.22;1.08;;;3.20;99.90;;;;;;5092776;28;20458;-83
2022/12/07 08:38:03;;;;;;;9.10;1.30;;;3.20;99.90;;;;;;5109232;28;20051;-83
2022/12/07 08:40:29;;;;;;;16.08;1.90;;;3.30;99.90;;;;;;5092514;28;20061;-84
2022/12/07 08:42:55;;;;;;;10.40;1.10;;;3.40;99.90;;;;;;5109850;28;20035;-83
2022/12/07 08:45:21;;;;;;;10.93;1.40;;;3.40;99.90;;;;;;5092455;28;20406;-83
2022/12/07 08:48:06;;;;;;;5.22;1.40;;;3.50;99.90;;;;;;5092376;28;20122;-83
2022/12/07 08:50:32;;;;;;;8.15;1.55;;;3.50;99.90;;;;;;5093033;28;20469;-83
2022/12/07 08:53:00;;;;;;;7.80;0.60;;;3.50;99.90;;;;;;5059001;28;20108;-83
2022/12/07 08:55:28;;;;;;;5.45;0.70;;;3.60;99.90;;;;;;5108856;28;20099;-84
2022/12/07 08:57:54;;;;;;;5.53;0.60;;;4.70;99.90;;;;;;5092373;28;20129;-84
2022/12/07 09:00:20;;;;;;;16.20;1.58;;;3.90;99.90;;;;;;5108829;28;20054;-84
2022/12/07 09:02:46;;;;;;;8.15;1.00;;;3.80;99.90;;;;;;5092055;28;20047;-84
2022/12/07 09:05:14;;;;;;;7.13;1.08;;;3.90;99.90;;;;;;5109070;28;20135;-83
2022/12/07 09:07:43;;;;;;;8.38;0.90;;;4.00;99.90;;;;;;5092946;28;20356;-84
2022/12/07 09:10:09;;;;;;;9.98;0.82;;;4.10;99.90;;;;;;5108997;28;20039;-84
2022/12/07 09:12:34;;;;;;;6.70;0.55;;;4.10;99.90;;;;;;5058845;28;20031;-84
2022/12/07 09:15:00;;;;;;;9.30;0.65;;;4.10;99.90;;;;;;5108895;28;20524;-84
2022/12/07 09:17:26;;;;;;;8.57;1.05;;;4.20;99.90;;;;;;5075777;27;20039;-84
2022/12/07 09:19:52;;;;;;;7.18;0.80;;;4.30;99.90;;;;;;5096035;27;20345;-84
2022/12/07 09:22:17;;;;;;;4.15;0.75;;;5.80;99.90;;;;;;5095979;27;20031;-84
2022/12/07 09:24:45;;;;;;;8.27;0.60;;;4.60;99.90;;;;;;5112561;27;20406;-84
2022/12/07 09:27:11;;;;;;;13.70;1.92;;;5.70;99.90;;;;;;5112809;27;20079;-84
2022/12/07 09:29:37;;;;;;;5.97;0.60;;;4.80;99.90;;;;;;5095580;27;20379;-84
2022/12/07 09:32:03;;;;;;;2.10;0.52;;;4.90;99.90;;;;;;5095748;27;20120;-84
2022/12/07 09:34:31;;;;;;;6.03;0.52;;;5.00;99.90;;;;;;5112393;27;20406;-84
2022/12/07 09:36:57;;;;;;;6.55;0.50;;;5.10;99.90;;;;;;5078883;27;20043;-84
2022/12/07 09:39:23;;;;;;;6.03;1.00;;;5.10;99.90;;;;;;5078142;27;20411;-84
2022/12/07 09:41:49;;;;;;;9.95;0.73;;;5.10;99.90;;;;;;5095085;27;20074;-84
2022/12/07 09:44:22;;;;;;;3.78;0.30;;;6.40;99.90;;;;;;5094977;27;20047;-84
2022/12/07 09:46:49;;;;;;;4.32;0.40;;;5.20;99.90;;;;;;5094769;27;20047;-83
2022/12/07 09:49:22;;;;;;;5.10;0.40;;;5.20;99.90;;;;;;5078469;27;20053;-84
2022/12/07 09:51:59;;;;;;;5.88;0.43;;;5.30;99.90;;;;;;5094994;27;20039;-84
2022/12/07 09:54:25;;;;;;;7.65;0.60;;;6.50;99.90;;;;;;5095164;27;20490;-83
2022/12/07 09:56:50;;;;;;;9.23;1.33;;;5.30;99.90;;;;;;5078204;27;20161;-84
2022/12/07 09:59:18;;;;;;;7.68;0.90;;;5.30;99.90;;;;;;5094766;27;20043;-84
2022/12/07 10:01:46;;;;;;;5.70;0.45;;;5.30;99.90;;;;;;5111280;27;20143;-84
2022/12/07 10:04:21;;;;;;;5.57;0.70;;;5.30;99.90;;;;;;5111474;27;20139;-83
2022/12/07 10:06:48;;;;;;;6.30;0.70;;;5.30;99.90;;;;;;5094806;27;20050;-84
2022/12/07 10:09:16;;;;;;;8.73;1.00;;;6.40;99.90;;;;;;5094840;27;20509;-84
2022/12/07 10:12:09;;;;;;;7.45;0.60;;;5.50;99.90;;;;;;5112006;27;20035;-84
2022/12/07 10:14:59;;;;;;;6.30;0.70;;;5.60;99.90;;;;;;5094429;27;20080;-84
2022/12/07 10:17:43;;;;;;;9.65;0.77;;;5.60;99.90;;;;;;5094472;27;20481;-84
2022/12/07 10:20:12;;;;;;;13.70;0.70;;;5.70;99.90;;;;;;5111731;27;20047;-83
2022/12/07 10:22:38;;;;;;;4.70;0.95;;;5.70;99.90;;;;;;5094568;27;20050;-84
2022/12/07 10:25:32;;;;;;;1.80;0.30;;;5.70;99.90;;;;;;5094351;27;20036;-84
2022/12/07 10:28:19;;;;;;;8.93;1.42;;;5.70;99.90;;;;;;5091245;27;20108;-84
2022/12/07 10:30:59;;;;;;;3.25;0.50;;;5.80;99.90;;;;;;5093695;27;20047;-84
2022/12/07 10:33:38;;;;;;;10.55;1.55;;;6.00;99.90;;;;;;5093855;27;20043;-84
2022/12/07 10:36:24;;;;;;;6.40;1.20;;;5.90;99.90;;;;;;5110977;27;20078;-84
2022/12/07 10:39:12;;;;;;;7.00;0.85;;;6.00;99.90;;;;;;5110656;27;20521;-84
2022/12/07 10:41:55;;;;;;;9.00;1.30;;;6.00;99.90;;;;;;5111408;27;20047;-84
2022/12/07 10:44:29;;;;;;;7.35;0.90;;;6.00;99.90;;;;;;5093716;27;20516;-84
2022/12/07 10:47:24;;;;;;;6.38;0.90;;;6.10;99.90;;;;;;5110859;27;20414;-83
2022/12/07 10:50:05;;;;;;;12.70;1.10;;;6.10;99.90;;;;;;5093701;27;20047;-84
2022/12/07 10:52:52;;;;;;;10.95;1.00;;;6.10;99.90;;;;;;5110787;27;20131;-84
2022/12/07 10:55:34;;;;;;;12.38;1.15;;;6.10;99.90;;;;;;5111051;27;20050;-84
2022/12/07 10:58:29;;;;;;;5.60;0.65;;;6.10;99.90;;;;;;5093562;27;20122;-85
2022/12/07 11:01:05;;;;;;;2.80;0.90;;;6.00;99.90;;;;;;5107476;27;20062;-84
2022/12/07 11:03:54;;;;;;;3.95;0.52;;;5.90;99.90;;;;;;5093378;27;20479;-84
2022/12/07 11:06:27;;;;;;;3.50;1.52;;;5.80;99.90;;;;;;5093687;27;20497;-83
2022/12/07 11:09:08;;;;;;;6.15;0.55;;;5.70;99.90;;;;;;5093671;27;20402;-85
2022/12/07 11:11:42;;;;;;;4.85;0.50;;;5.70;99.90;;;;;;5093423;27;20554;-84
2022/12/07 11:14:18;;;;;;;10.35;0.82;;;5.70;99.90;;;;;;5093425;27;20494;-84
2022/12/07 11:17:04;;;;;;;8.18;0.60;;;6.70;99.90;;;;;;5110604;27;20043;-84
2022/12/07 11:19:54;;;;;;;7.60;0.70;;;5.60;99.90;;;;;;5093728;27;20043;-84
2022/12/07 11:22:46;;;;;;;6.18;0.60;;;5.50;99.90;;;;;;5110861;27;20050;-84
2022/12/07 11:25:30;;;;;;;5.50;1.48;;;5.50;99.90;;;;;;5079873;27;20047;-84
2022/12/07 11:28:26;;;;;;;5.50;0.75;;;6.10;99.90;;;;;;5109989;27;20051;-83
2022/12/07 11:31:11;;;;;;;5.38;0.65;;;5.50;99.90;;;;;;5110369;27;20431;-84
2022/12/07 11:33:58;;;;;;;6.47;0.95;;;5.50;99.90;;;;;;5092623;27;20035;-84
2022/12/07 11:36:44;;;;;;;7.00;0.85;;;5.60;99.90;;;;;;5110113;27;20086;-84
2022/12/07 11:39:20;;;;;;;7.28;0.95;;;5.70;99.90;;;;;;5092892;27;20130;-84
2022/12/07 11:42:11;;;;;;;8.93;1.08;;;5.80;99.90;;;;;;5092162;27;20082;-85
2022/12/07 11:45:05;;;;;;;14.43;1.70;;;5.90;99.90;;;;;;5062765;27;20100;-84
2022/12/07 11:47:55;;;;;;;5.38;1.50;;;6.00;99.90;;;;;;5109899;27;20046;-84
2022/12/07 11:50:38;;;;;;;5.70;0.70;;;6.00;99.90;;;;;;5092646;27;20039;-84
2022/12/07 11:53:29;;;;;;;13.68;2.22;;;6.00;99.90;;;;;;5109802;27;20047;-87
2022/12/07 11:56:03;;;;;;;5.15;0.73;;;6.00;99.90;;;;;;5093623;28;20126;-86
2022/12/07 11:58:47;;;;;;;6.53;0.95;;;6.00;99.90;;;;;;5110982;27;20439;-86
2022/12/07 12:01:17;;;;;;;3.88;0.70;;;6.00;99.90;;;;;;5094435;27;20096;-86
2022/12/07 12:03:58;;;;;;;7.10;0.65;;;5.90;99.90;;;;;;5110085;27;20047;-87
2022/12/07 12:06:23;;;;;;;5.07;0.70;;;5.90;99.90;;;;;;5110025;27;20050;-84
2022/12/07 12:09:28;;;;;;;5.40;0.52;;;5.90;99.90;;;;;;5110401;27;20031;-85
2022/12/07 12:12:17;;;;;;;7.45;0.63;;;5.90;99.90;;;;;;5078362;28;20051;-85
2022/12/07 12:14:53;;;;;;;4.47;0.68;;;5.80;99.90;;;;;;5093063;28;20122;-84
2022/12/07 12:17:21;;;;;;;11.43;1.50;;;5.80;99.90;;;;;;5110547;28;20467;-85
2022/12/07 12:20:15;;;;;;;9.25;0.73;;;5.80;99.90;;;;;;5093220;28;20061;-84
2022/12/07 12:23:04;;;;;;;4.95;0.70;;;5.70;99.90;;;;;;5110184;28;20135;-86
2022/12/07 12:25:50;;;;;;;9.55;1.17;;;6.30;99.90;;;;;;5093523;28;20511;-87
2022/12/07 12:28:40;;;;;;;5.90;0.70;;;5.80;99.90;;;;;;5092494;28;20654;-88
2022/12/07 12:31:30;;;;;;;4.93;0.68;;;5.80;99.90;;;;;;5083928;28;20738;-88
2022/12/07 12:33:58;;;;;;;7.82;1.10;;;5.80;99.90;;;;;;5109610;28;20066;-88
2022/12/07 12:36:43;;;;;;;18.92;0.60;;;6.10;99.90;;;;;;5091838;28;20049;-87
2022/12/07 12:39:15;;;;;;;11.63;0.77;;;5.80;99.90;;;;;;5092532;28;20040;-87
2022/12/07 12:42:05;;;;;;;10.10;0.93;;;5.80;99.90;;;;;;5091821;28;20043;-88
2022/12/07 12:44:31;;;;;;;9.35;1.65;;;5.90;99.90;;;;;;5109177;28;20386;-88
2022/12/07 12:47:04;;;;;;;7.35;1.00;;;5.90;99.90;;;;;;5109602;28;20047;-86
2022/12/07 12:49:43;;;;;;;5.22;0.93;;;5.90;99.90;;;;;;5091965;28;20047;-85
2022/12/07 12:52:14;;;;;;;2.85;0.50;;;6.00;99.90;;;;;;5094214;27;20055;-87
2022/12/07 12:55:11;;;;;;;5.55;1.23;;;6.00;99.90;;;;;;5113283;27;20087;-86
2022/12/07 12:57:37;;;;;;;6.20;0.73;;;5.90;99.90;;;;;;5113488;27;20046;-87
2022/12/07 13:00:30;;;;;;;5.72;0.93;;;5.80;99.90;;;;;;5079307;27;20047;-86
2022/12/07 13:02:58;;;;;;;6.43;0.60;;;5.80;99.90;;;;;;5108883;27;20130;-83
2022/12/07 13:05:31;;;;;;;4.65;0.50;;;7.00;99.90;;;;;;5095541;27;20067;-84
2022/12/07 13:08:24;;;;;;;9.05;0.40;;;5.70;99.90;;;;;;5095347;27;20043;-85
2022/12/07 13:10:50;;;;;;;12.65;0.85;;;6.80;99.90;;;;;;5091497;27;20415;-84
2022/12/07 13:13:18;;;;;;;4.97;0.63;;;5.60;99.90;;;;;;5061193;27;20042;-84
2022/12/07 13:15:45;;;;;;;5.03;0.73;;;5.60;99.90;;;;;;5094973;27;20184;-86
2022/12/07 13:18:32;;;;;;;6.68;0.60;;;5.60;99.90;;;;;;5094892;27;20653;-84
2022/12/07 13:21:07;;;;;;;8.63;0.80;;;5.70;99.90;;;;;;5094758;27;20089;-85